PWSweather.com
Personal Weather Stations
Station Observations
WAREHAM1
West Wareham, MA 02576

West Wareham, MA 02576

Lat: 41.7961059, Lon: -70.775612

Elevation: 88

Station Type: Davis Vantage Vue

http://www.gateway2capecod.com

Latest ConditionsUpdated 6:19:19 PM EST Sunday, Dec 16, 2018
Currently Today's Max Today's Min Today's Average
Temperature 41.2°F5.1°C 42.8°F6.0°C 41.0°F5.0°C 42.1°F5.6°C
Dew Point 39.9°F4.4°C 39.9°F4.4°C 36.1°F2.3°C 38.1°F3.4°C
Winds 2.9 mph NNE4.7 kmh NNE 4.9 mph -7.9 kmh - - 2.7 mph 4.3 kmh
Wind Gusts 14.1 mph22.7 kmh 18.0 mph29.0 kmh - -
Humidity 95% 95% 79% 85%
Pressure 29.85 in1010.8 mb 30.21 in1023.0 mb 29.85 in1010.8 mb -
Precipitation - 0.31 in7.9 mm - -
Hour Temp Dew Point Humidity Winds Wind Gusts Pressure Precip Precip Rate Daily Precip Total
06:19 PM 41.2°F5.1°C 39.9°F4.4°C 95% 2.9 mph NNE4.7 kmh NNE 14.1 mph22.7 kmh 29.85 in1010.8 mb 0.12 in3.0 mm 0.12 in3.0 mm 0.31 in7.9 mm
06:09 PM 41.2°F5.1°C 39.9°F4.4°C 95% 2.9 mph E4.7 kmh E 8.9 mph14.3 kmh 29.86 in1011.2 mb 0.10 in2.5 mm 0.02 in0.5 mm 0.29 in7.4 mm
05:59 PM 41.2°F5.1°C 39.9°F4.4°C 95% 2.9 mph E4.7 kmh E 12.1 mph19.5 kmh 29.87 in1011.5 mb 0.08 in2.0 mm 0.00 in0.0 mm 0.26 in6.6 mm
05:49 PM 41.2°F5.1°C 39.9°F4.4°C 95% 4.0 mph E6.4 kmh E 11.0 mph17.7 kmh 29.88 in1011.9 mb 0.08 in2.0 mm 0.06 in1.5 mm 0.24 in6.1 mm
05:39 PM 41.2°F5.1°C 39.9°F4.4°C 95% 2.9 mph E4.7 kmh E 8.1 mph13.0 kmh 29.88 in1011.9 mb 0.07 in1.8 mm 0.00 in0.0 mm 0.22 in5.6 mm
05:29 PM 41.2°F5.1°C 39.9°F4.4°C 95% 2.9 mph N4.7 kmh N 11.0 mph17.7 kmh 29.88 in1011.9 mb 0.08 in2.0 mm 0.00 in0.0 mm 0.21 in5.3 mm
05:19 PM 41.2°F5.1°C 39.9°F4.4°C 95% 4.0 mph NE6.4 kmh NE 10.1 mph16.3 kmh 29.88 in1011.9 mb 0.09 in2.3 mm 0.00 in0.0 mm 0.20 in5.1 mm
05:09 PM 41.2°F5.1°C 39.9°F4.4°C 95% 2.9 mph ENE4.7 kmh ENE 14.1 mph22.7 kmh 29.89 in1012.2 mb 0.10 in2.5 mm 0.00 in0.0 mm 0.19 in4.8 mm
04:59 PM 41.2°F5.1°C 39.9°F4.4°C 95% 2.9 mph N4.7 kmh N 12.1 mph19.5 kmh 29.89 in1012.2 mb 0.10 in2.5 mm 0.06 in1.5 mm 0.18 in4.6 mm
04:49 PM 41.0°F5.0°C 39.7°F4.3°C 95% 2.0 mph ENE3.2 kmh ENE 6.0 mph9.7 kmh 29.90 in1012.5 mb 0.09 in2.3 mm 0.06 in1.5 mm 0.16 in4.1 mm
04:39 PM 41.0°F5.0°C 39.4°F4.1°C 94% 2.0 mph ENE3.2 kmh ENE 6.0 mph9.7 kmh 29.90 in1012.5 mb 0.08 in2.0 mm 0.06 in1.5 mm 0.14 in3.6 mm
04:29 PM 41.2°F5.1°C 39.6°F4.2°C 94% 2.9 mph E4.7 kmh E 10.1 mph16.3 kmh 29.91 in1012.9 mb 0.07 in1.8 mm 0.12 in3.0 mm 0.13 in3.3 mm
04:19 PM 41.2°F5.1°C 39.6°F4.2°C 94% 2.0 mph NE3.2 kmh NE 9.0 mph14.5 kmh 29.91 in1012.9 mb 0.05 in1.3 mm 0.06 in1.5 mm 0.11 in2.8 mm
04:09 PM 41.4°F5.2°C 39.6°F4.2°C 93% 2.0 mph NE3.2 kmh NE 7.0 mph11.3 kmh 29.91 in1012.9 mb 0.04 in1.0 mm 0.01 in0.3 mm 0.09 in2.3 mm
03:59 PM 41.4°F5.2°C 39.6°F4.2°C 93% 2.0 mph NE3.2 kmh NE 6.9 mph11.1 kmh 29.91 in1012.9 mb 0.03 in0.8 mm 0.06 in1.5 mm 0.08 in2.0 mm
03:49 PM 41.5°F5.3°C 39.4°F4.1°C 92% 2.9 mph NNE4.7 kmh NNE 9.0 mph14.5 kmh 29.91 in1012.9 mb 0.02 in0.5 mm 0.06 in1.5 mm 0.07 in1.8 mm
03:39 PM 41.5°F5.3°C 39.2°F4.0°C 91% 2.0 mph E3.2 kmh E 8.1 mph13.0 kmh 29.91 in1012.9 mb 0.01 in0.3 mm 0.00 in0.0 mm 0.06 in1.5 mm
03:29 PM 42.1°F5.6°C 39.4°F4.1°C 90% 2.9 mph ENE4.7 kmh ENE 9.0 mph14.5 kmh 29.92 in1013.2 mb 0.01 in0.3 mm 0.06 in1.5 mm 0.06 in1.5 mm
03:19 PM 42.4°F5.8°C 39.4°F4.1°C 89% 2.0 mph NE3.2 kmh NE 6.0 mph9.7 kmh 29.92 in1013.2 mb 0.00 in0.0 mm 0.00 in0.0 mm 0.05 in1.3 mm
03:09 PM 42.6°F5.9°C 39.4°F4.1°C 88% 2.9 mph SE4.7 kmh SE 13.0 mph20.9 kmh 29.92 in1013.2 mb 0.00 in0.0 mm 0.00 in0.0 mm 0.05 in1.3 mm
02:59 PM 42.6°F5.9°C 39.4°F4.1°C 88% 2.9 mph NNE4.7 kmh NNE 12.1 mph19.5 kmh 29.93 in1013.5 mb 0.01 in0.3 mm 0.00 in0.0 mm 0.05 in1.3 mm
02:49 PM 42.6°F5.9°C 39.4°F4.1°C 88% 2.9 mph E4.7 kmh E 8.9 mph14.3 kmh 29.94 in1013.9 mb 0.01 in0.3 mm 0.00 in0.0 mm 0.05 in1.3 mm
02:39 PM 42.4°F5.8°C 39.2°F4.0°C 88% 2.9 mph NE4.7 kmh NE 8.9 mph14.3 kmh 29.94 in1013.9 mb 0.01 in0.3 mm 0.00 in0.0 mm 0.05 in1.3 mm
02:29 PM 42.4°F5.8°C 39.2°F4.0°C 88% 2.9 mph E4.7 kmh E 11.0 mph17.7 kmh 29.95 in1014.2 mb 0.01 in0.3 mm 0.00 in0.0 mm 0.05 in1.3 mm
02:19 PM 42.4°F5.8°C 39.4°F4.1°C 89% 2.9 mph NE4.7 kmh NE 10.1 mph16.3 kmh 29.96 in1014.6 mb 0.01 in0.3 mm 0.00 in0.0 mm 0.05 in1.3 mm
02:09 PM 42.6°F5.9°C 39.6°F4.2°C 89% 2.9 mph E4.7 kmh E 15.0 mph24.1 kmh 29.95 in1014.2 mb 0.01 in0.3 mm 0.01 in0.3 mm 0.05 in1.3 mm
01:59 PM 42.8°F6.0°C 39.2°F4.0°C 87% 2.9 mph NE4.7 kmh NE 9.0 mph14.5 kmh 29.96 in1014.6 mb 0.00 in0.0 mm 0.00 in0.0 mm 0.04 in1.0 mm
01:49 PM 42.6°F5.9°C 39.0°F3.9°C 87% 4.0 mph NE6.4 kmh NE 12.1 mph19.5 kmh 29.97 in1014.9 mb 0.00 in0.0 mm 0.00 in0.0 mm 0.04 in1.0 mm
01:39 PM 42.4°F5.8°C 38.8°F3.8°C 87% 4.9 mph E7.9 kmh E 12.1 mph19.5 kmh 29.97 in1014.9 mb 0.00 in0.0 mm 0.00 in0.0 mm 0.04 in1.0 mm
01:29 PM 42.6°F5.9°C 39.0°F3.9°C 87% 4.9 mph ENE7.9 kmh ENE 13.0 mph20.9 kmh 29.98 in1015.2 mb 0.00 in0.0 mm 0.00 in0.0 mm 0.04 in1.0 mm
01:19 PM 42.6°F5.9°C 39.0°F3.9°C 87% 2.9 mph NE4.7 kmh NE 11.0 mph17.7 kmh 29.98 in1015.2 mb 0.00 in0.0 mm 0.00 in0.0 mm 0.04 in1.0 mm
01:09 PM 42.6°F5.9°C 39.0°F3.9°C 87% 2.0 mph E3.2 kmh E 8.9 mph14.3 kmh 29.99 in1015.6 mb 0.00 in0.0 mm 0.00 in0.0 mm 0.04 in1.0 mm
12:59 PM 42.6°F5.9°C 39.4°F4.1°C 88% 2.9 mph NNE4.7 kmh NNE 12.1 mph19.5 kmh 29.99 in1015.6 mb 0.00 in0.0 mm 0.00 in0.0 mm 0.04 in1.0 mm
12:49 PM 42.4°F5.8°C 38.8°F3.8°C 87% 4.9 mph ENE7.9 kmh ENE 15.0 mph24.1 kmh 29.99 in1015.6 mb 0.00 in0.0 mm 0.00 in0.0 mm 0.04 in1.0 mm
12:39 PM 42.4°F5.8°C 39.2°F4.0°C 88% 4.9 mph E7.9 kmh E 14.1 mph22.7 kmh 30.00 in1015.9 mb 0.00 in0.0 mm 0.00 in0.0 mm 0.04 in1.0 mm
12:29 PM 42.4°F5.8°C 39.4°F4.1°C 89% 4.9 mph NE7.9 kmh NE 12.1 mph19.5 kmh 30.01 in1016.3 mb 0.00 in0.0 mm 0.00 in0.0 mm 0.04 in1.0 mm
12:19 PM 42.6°F5.9°C 39.9°F4.4°C 90% 2.9 mph NNE4.7 kmh NNE 11.0 mph17.7 kmh 30.01 in1016.3 mb 0.00 in0.0 mm 0.00 in0.0 mm 0.04 in1.0 mm
12:09 PM 42.4°F5.8°C 39.7°F4.3°C 90% 4.0 mph ESE6.4 kmh ESE 11.0 mph17.7 kmh 30.02 in1016.6 mb 0.00 in0.0 mm 0.00 in0.0 mm 0.04 in1.0 mm
11:59 AM 42.4°F5.8°C 39.9°F4.4°C 91% 2.0 mph E3.2 kmh E 9.0 mph14.5 kmh 30.03 in1016.9 mb 0.01 in0.3 mm 0.00 in0.0 mm 0.04 in1.0 mm
11:49 AM 42.1°F5.6°C 39.9°F4.4°C 92% 2.9 mph NNE4.7 kmh NNE 8.1 mph13.0 kmh 30.03 in1016.9 mb 0.01 in0.3 mm 0.00 in0.0 mm 0.04 in1.0 mm
11:39 AM 42.1°F5.6°C 39.9°F4.4°C 92% 2.9 mph NE4.7 kmh NE 14.1 mph22.7 kmh 30.04 in1017.3 mb 0.01 in0.3 mm 0.00 in0.0 mm 0.04 in1.0 mm
11:29 AM 41.9°F5.5°C 39.7°F4.3°C 92% 4.9 mph SSE7.9 kmh SSE 13.0 mph20.9 kmh 30.05 in1017.6 mb 0.01 in0.3 mm 0.00 in0.0 mm 0.04 in1.0 mm
11:19 AM 41.7°F5.4°C 39.6°F4.2°C 92% 4.0 mph NNE6.4 kmh NNE 12.1 mph19.5 kmh 30.06 in1017.9 mb 0.01 in0.3 mm 0.00 in0.0 mm 0.04 in1.0 mm
11:09 AM 41.5°F5.3°C 39.4°F4.1°C 92% 2.9 mph NNE4.7 kmh NNE 8.1 mph13.0 kmh 30.08 in1018.6 mb 0.02 in0.5 mm 0.01 in0.3 mm 0.04 in1.0 mm
10:59 AM 41.5°F5.3°C 39.2°F4.0°C 91% 2.0 mph NE3.2 kmh NE 10.1 mph16.3 kmh 30.10 in1019.3 mb 0.01 in0.3 mm 0.00 in0.0 mm 0.03 in0.8 mm
10:49 AM 41.5°F5.3°C 39.2°F4.0°C 91% 4.0 mph ENE6.4 kmh ENE 13.0 mph20.9 kmh 30.10 in1019.3 mb 0.02 in0.5 mm 0.00 in0.0 mm 0.03 in0.8 mm
10:39 AM 41.5°F5.3°C 39.4°F4.1°C 92% 2.9 mph SE4.7 kmh SE 10.1 mph16.3 kmh 30.11 in1019.6 mb 0.02 in0.5 mm 0.00 in0.0 mm 0.03 in0.8 mm
10:29 AM 41.2°F5.1°C 39.0°F3.9°C 92% 2.9 mph ENE4.7 kmh ENE 6.9 mph11.1 kmh 30.11 in1019.6 mb 0.02 in0.5 mm 0.00 in0.0 mm 0.03 in0.8 mm
10:19 AM 41.2°F5.1°C 38.8°F3.8°C 91% 2.0 mph E3.2 kmh E 8.1 mph13.0 kmh 30.13 in1020.3 mb 0.03 in0.8 mm 0.06 in1.5 mm 0.03 in0.8 mm
10:09 AM 41.2°F5.1°C 38.5°F3.6°C 90% 2.0 mph E3.2 kmh E 11.0 mph17.7 kmh 30.14 in1020.7 mb 0.02 in0.5 mm 0.00 in0.0 mm 0.02 in0.5 mm
09:59 AM 41.4°F5.2°C 38.1°F3.4°C 88% 2.0 mph SE3.2 kmh SE 8.1 mph13.0 kmh 30.15 in1021.0 mb 0.02 in0.5 mm 0.06 in1.5 mm 0.02 in0.5 mm
09:49 AM 41.7°F5.4°C 38.1°F3.4°C 87% 2.9 mph ENE4.7 kmh ENE 8.9 mph14.3 kmh 30.15 in1021.0 mb 0.01 in0.3 mm 0.00 in0.0 mm 0.01 in0.3 mm
09:39 AM 41.9°F5.5°C 37.9°F3.3°C 86% 4.0 mph E6.4 kmh E 15.0 mph24.1 kmh 30.16 in1021.3 mb 0.01 in0.3 mm 0.00 in0.0 mm 0.01 in0.3 mm
09:29 AM 42.3°F5.7°C 37.8°F3.2°C 84% 4.0 mph NE6.4 kmh NE 8.1 mph13.0 kmh 30.16 in1021.3 mb 0.01 in0.3 mm 0.06 in1.5 mm 0.01 in0.3 mm
09:19 AM 42.6°F5.9°C 37.6°F3.1°C 82% 4.0 mph ENE6.4 kmh ENE 12.1 mph19.5 kmh 30.17 in1021.7 mb 0.00 in0.0 mm 0.00 in0.0 mm 0.00 in0.0 mm
09:09 AM 42.6°F5.9°C 37.2°F2.9°C 81% 2.9 mph SE4.7 kmh SE 14.1 mph22.7 kmh 30.16 in1021.3 mb 0.00 in0.0 mm 0.00 in0.0 mm 0.00 in0.0 mm
08:59 AM 42.6°F5.9°C 37.2°F2.9°C 81% 2.9 mph NE4.7 kmh NE 18.0 mph29.0 kmh 30.16 in1021.3 mb 0.00 in0.0 mm 0.00 in0.0 mm 0.00 in0.0 mm
08:49 AM 42.6°F5.9°C 36.9°F2.7°C 80% 2.9 mph ENE4.7 kmh ENE 18.0 mph29.0 kmh 30.17 in1021.7 mb 0.00 in0.0 mm 0.00 in0.0 mm 0.00 in0.0 mm
08:39 AM 42.6°F5.9°C 36.9°F2.7°C 80% 2.0 mph NE3.2 kmh NE 8.1 mph13.0 kmh 30.17 in1021.7 mb 0.00 in0.0 mm 0.00 in0.0 mm 0.00 in0.0 mm
08:29 AM 42.6°F5.9°C 36.9°F2.7°C 80% 0.9 mph ESE1.4 kmh ESE 4.9 mph7.9 kmh 30.19 in1022.4 mb 0.00 in0.0 mm 0.00 in0.0 mm 0.00 in0.0 mm
08:19 AM 42.6°F5.9°C 36.9°F2.7°C 80% 2.0 mph E3.2 kmh E 8.9 mph14.3 kmh 30.19 in1022.4 mb 0.00 in0.0 mm 0.00 in0.0 mm 0.00 in0.0 mm
08:09 AM 42.6°F5.9°C 36.9°F2.7°C 80% 2.0 mph SSE3.2 kmh SSE 11.0 mph17.7 kmh 30.19 in1022.4 mb 0.00 in0.0 mm 0.00 in0.0 mm 0.00 in0.0 mm
07:59 AM 42.4°F5.8°C 37.0°F2.8°C 81% 2.0 mph E3.2 kmh E 10.1 mph16.3 kmh 30.19 in1022.4 mb 0.00 in0.0 mm 0.00 in0.0 mm 0.00 in0.0 mm
07:49 AM 42.3°F5.7°C 36.9°F2.7°C 81% 2.9 mph NE4.7 kmh NE 9.0 mph14.5 kmh 30.16 in1021.3 mb 0.00 in0.0 mm 0.00 in0.0 mm 0.00 in0.0 mm
07:39 AM 42.3°F5.7°C 37.2°F2.9°C 82% 2.9 mph NE4.7 kmh NE 11.0 mph17.7 kmh 30.16 in1021.3 mb 0.00 in0.0 mm 0.00 in0.0 mm 0.00 in0.0 mm
07:29 AM 42.3°F5.7°C 37.2°F2.9°C 82% 2.9 mph NE4.7 kmh NE 11.0 mph17.7 kmh 30.16 in1021.3 mb 0.00 in0.0 mm 0.00 in0.0 mm 0.00 in0.0 mm
07:19 AM 42.4°F5.8°C 37.0°F2.8°C 81% 2.0 mph NNW3.2 kmh NNW 8.9 mph14.3 kmh 30.16 in1021.3 mb 0.00 in0.0 mm 0.00 in0.0 mm 0.00 in0.0 mm
07:09 AM 42.3°F5.7°C 36.9°F2.7°C 81% 2.0 mph E3.2 kmh E 10.1 mph16.3 kmh 30.17 in1021.7 mb 0.00 in0.0 mm 0.00 in0.0 mm 0.00 in0.0 mm
06:59 AM 42.3°F5.7°C 36.9°F2.7°C 81% 4.0 mph E6.4 kmh E 12.1 mph19.5 kmh 30.16 in1021.3 mb 0.00 in0.0 mm 0.00 in0.0 mm 0.00 in0.0 mm
06:49 AM 42.3°F5.7°C 36.9°F2.7°C 81% 2.9 mph NE4.7 kmh NE 13.0 mph20.9 kmh 30.15 in1021.0 mb 0.00 in0.0 mm 0.00 in0.0 mm 0.00 in0.0 mm
06:39 AM 42.3°F5.7°C 36.5°F2.5°C 80% 2.9 mph E4.7 kmh E 11.0 mph17.7 kmh 30.17 in1021.7 mb 0.00 in0.0 mm 0.00 in0.0 mm 0.00 in0.0 mm
06:29 AM 42.3°F5.7°C 36.5°F2.5°C 80% 2.9 mph ENE4.7 kmh ENE 8.1 mph13.0 kmh 30.19 in1022.4 mb 0.00 in0.0 mm 0.00 in0.0 mm 0.00 in0.0 mm
06:19 AM 42.3°F5.7°C 36.5°F2.5°C 80% 0.9 mph ENE1.4 kmh ENE 4.9 mph7.9 kmh 30.20 in1022.7 mb 0.00 in0.0 mm 0.00 in0.0 mm 0.00 in0.0 mm
06:09 AM 42.4°F5.8°C 36.7°F2.6°C 80% 2.0 mph NNE3.2 kmh NNE 8.9 mph14.3 kmh 30.20 in1022.7 mb 0.00 in0.0 mm 0.00 in0.0 mm 0.00 in0.0 mm
05:59 AM 42.4°F5.8°C 36.7°F2.6°C 80% 2.0 mph NE3.2 kmh NE 11.0 mph17.7 kmh 30.21 in1023.0 mb 0.00 in0.0 mm 0.00 in0.0 mm 0.00 in0.0 mm
05:49 AM 42.4°F5.8°C 36.7°F2.6°C 80% 2.0 mph ENE3.2 kmh ENE 6.9 mph11.1 kmh 30.21 in1023.0 mb 0.00 in0.0 mm 0.00 in0.0 mm 0.00 in0.0 mm
05:39 AM 42.4°F5.8°C 36.7°F2.6°C 80% 2.0 mph NE3.2 kmh NE 8.1 mph13.0 kmh 30.20 in1022.7 mb 0.00 in0.0 mm 0.00 in0.0 mm 0.00 in0.0 mm
05:29 AM 42.4°F5.8°C 36.7°F2.6°C 80% 2.0 mph NE3.2 kmh NE 8.0 mph12.9 kmh 30.19 in1022.4 mb 0.00 in0.0 mm 0.00 in0.0 mm 0.00 in0.0 mm
05:19 AM 42.4°F5.8°C 37.0°F2.8°C 81% 0.9 mph E1.4 kmh E 8.1 mph13.0 kmh 30.19 in1022.4 mb 0.00 in0.0 mm 0.00 in0.0 mm 0.00 in0.0 mm
05:09 AM 42.4°F5.8°C 37.0°F2.8°C 81% 2.0 mph E3.2 kmh E 8.9 mph14.3 kmh 30.19 in1022.4 mb 0.00 in0.0 mm 0.00 in0.0 mm 0.00 in0.0 mm
04:59 AM 42.4°F5.8°C 37.4°F3.0°C 82% 2.0 mph ENE3.2 kmh ENE 6.9 mph11.1 kmh 30.18 in1022.0 mb 0.00 in0.0 mm 0.00 in0.0 mm 0.00 in0.0 mm
04:49 AM 42.4°F5.8°C 37.4°F3.0°C 82% 2.0 mph ENE3.2 kmh ENE 8.1 mph13.0 kmh 30.17 in1021.7 mb 0.00 in0.0 mm 0.00 in0.0 mm 0.00 in0.0 mm
04:39 AM 42.4°F5.8°C 37.4°F3.0°C 82% 2.0 mph ENE3.2 kmh ENE 8.1 mph13.0 kmh 30.17 in1021.7 mb 0.00 in0.0 mm 0.00 in0.0 mm 0.00 in0.0 mm
04:29 AM 42.4°F5.8°C 37.0°F2.8°C 81% 2.9 mph E4.7 kmh E 13.0 mph20.9 kmh 30.16 in1021.3 mb 0.00 in0.0 mm 0.00 in0.0 mm 0.00 in0.0 mm
04:19 AM 42.4°F5.8°C 37.0°F2.8°C 81% 2.0 mph ENE3.2 kmh ENE 8.1 mph13.0 kmh 30.16 in1021.3 mb 0.00 in0.0 mm 0.00 in0.0 mm 0.00 in0.0 mm
04:09 AM 42.4°F5.8°C 36.7°F2.6°C 80% 2.0 mph NE3.2 kmh NE 8.1 mph13.0 kmh 30.16 in1021.3 mb 0.00 in0.0 mm 0.00 in0.0 mm 0.00 in0.0 mm
03:59 AM 42.4°F5.8°C 36.7°F2.6°C 80% 2.0 mph N3.2 kmh N 6.9 mph11.1 kmh 30.17 in1021.7 mb 0.00 in0.0 mm 0.00 in0.0 mm 0.00 in0.0 mm
03:49 AM 42.4°F5.8°C 36.3°F2.4°C 79% 0.9 mph NE1.4 kmh NE 6.9 mph11.1 kmh 30.16 in1021.3 mb 0.00 in0.0 mm 0.00 in0.0 mm 0.00 in0.0 mm
03:39 AM 42.4°F5.8°C 36.7°F2.6°C 80% 2.9 mph W4.7 kmh W 12.1 mph19.5 kmh 30.14 in1020.7 mb 0.00 in0.0 mm 0.00 in0.0 mm 0.00 in0.0 mm
03:29 AM 42.4°F5.8°C 36.7°F2.6°C 80% 4.0 mph ENE6.4 kmh ENE 13.0 mph20.9 kmh 30.14 in1020.7 mb 0.00 in0.0 mm 0.00 in0.0 mm 0.00 in0.0 mm
03:19 AM 42.3°F5.7°C 36.9°F2.7°C 81% 2.9 mph N4.7 kmh N 8.9 mph14.3 kmh 30.13 in1020.3 mb 0.00 in0.0 mm 0.00 in0.0 mm 0.00 in0.0 mm
03:09 AM 42.3°F5.7°C 36.9°F2.7°C 81% 4.0 mph NE6.4 kmh NE 12.1 mph19.5 kmh 30.15 in1021.0 mb 0.00 in0.0 mm 0.00 in0.0 mm 0.00 in0.0 mm
02:59 AM 42.3°F5.7°C 36.5°F2.5°C 80% 2.9 mph E4.7 kmh E 8.9 mph14.3 kmh 30.16 in1021.3 mb 0.00 in0.0 mm 0.00 in0.0 mm 0.00 in0.0 mm
02:49 AM 42.3°F5.7°C 36.1°F2.3°C 79% 2.0 mph NE3.2 kmh NE 8.9 mph14.3 kmh 30.17 in1021.7 mb 0.00 in0.0 mm 0.00 in0.0 mm 0.00 in0.0 mm
02:39 AM 42.3°F5.7°C 36.1°F2.3°C 79% 2.9 mph N4.7 kmh N 8.1 mph13.0 kmh 30.19 in1022.4 mb 0.00 in0.0 mm 0.00 in0.0 mm 0.00 in0.0 mm
02:29 AM 42.4°F5.8°C 36.3°F2.4°C 79% 2.0 mph E3.2 kmh E 6.9 mph11.1 kmh 30.20 in1022.7 mb 0.00 in0.0 mm 0.00 in0.0 mm 0.00 in0.0 mm
02:19 AM 42.4°F5.8°C 36.7°F2.6°C 80% 2.0 mph ENE3.2 kmh ENE 10.1 mph16.3 kmh 30.20 in1022.7 mb 0.00 in0.0 mm 0.00 in0.0 mm 0.00 in0.0 mm
02:09 AM 42.3°F5.7°C 36.1°F2.3°C 79% 2.0 mph E3.2 kmh E 6.9 mph11.1 kmh 30.20 in1022.7 mb 0.00 in0.0 mm 0.00 in0.0 mm 0.00 in0.0 mm
01:59 AM 42.4°F5.8°C 36.3°F2.4°C 79% 2.9 mph SE4.7 kmh SE 8.1 mph13.0 kmh 30.21 in1023.0 mb 0.00 in0.0 mm 0.00 in0.0 mm 0.00 in0.0 mm
01:49 AM 42.6°F5.9°C 36.5°F2.5°C 79% 2.9 mph NE4.7 kmh NE 13.0 mph20.9 kmh 30.20 in1022.7 mb 0.00 in0.0 mm 0.00 in0.0 mm 0.00 in0.0 mm
01:39 AM 42.6°F5.9°C 36.5°F2.5°C 79% 4.0 mph NE6.4 kmh NE 13.0 mph20.9 kmh 30.18 in1022.0 mb 0.00 in0.0 mm 0.00 in0.0 mm 0.00 in0.0 mm
01:29 AM 42.4°F5.8°C 37.0°F2.8°C 81% 2.0 mph E3.2 kmh E 6.9 mph11.1 kmh 30.19 in1022.4 mb 0.00 in0.0 mm 0.00 in0.0 mm 0.00 in0.0 mm
01:19 AM 42.4°F5.8°C 37.0°F2.8°C 81% 2.9 mph NE4.7 kmh NE 8.9 mph14.3 kmh 30.20 in1022.7 mb 0.00 in0.0 mm 0.00 in0.0 mm 0.00 in0.0 mm
01:09 AM 42.4°F5.8°C 37.0°F2.8°C 81% 2.9 mph E4.7 kmh E 11.0 mph17.7 kmh 30.19 in1022.4 mb 0.00 in0.0 mm 0.00 in0.0 mm 0.00 in0.0 mm
12:59 AM 42.4°F5.8°C 37.0°F2.8°C 81% 2.0 mph E3.2 kmh E 6.9 mph11.1 kmh 30.19 in1022.4 mb 0.00 in0.0 mm 0.00 in0.0 mm 0.00 in0.0 mm
12:49 AM 42.4°F5.8°C 37.0°F2.8°C 81% 2.0 mph E3.2 kmh E 8.9 mph14.3 kmh 30.20 in1022.7 mb 0.00 in0.0 mm 0.00 in0.0 mm 0.00 in0.0 mm
12:39 AM 42.4°F5.8°C 37.0°F2.8°C 81% 2.9 mph ENE4.7 kmh ENE 9.0 mph14.5 kmh 30.19 in1022.4 mb 0.00 in0.0 mm 0.00 in0.0 mm 0.00 in0.0 mm
12:29 AM 42.3°F5.7°C 36.9°F2.7°C 81% 2.9 mph NE4.7 kmh NE 10.1 mph16.3 kmh 30.19 in1022.4 mb 0.00 in0.0 mm 0.00 in0.0 mm 0.00 in0.0 mm
12:19 AM 42.3°F5.7°C 36.9°F2.7°C 81% 2.0 mph E3.2 kmh E 10.1 mph16.3 kmh 30.20 in1022.7 mb 0.00 in0.0 mm 0.00 in0.0 mm 0.00 in0.0 mm
12:09 AM 42.1°F5.6°C 37.0°F2.8°C 82% 2.9 mph ESE4.7 kmh ESE 8.1 mph13.0 kmh 30.20 in1022.7 mb 0.00 in0.0 mm 0.00 in0.0 mm 0.00 in0.0 mm